Time;durP1;ratioP1;P1;durP2;ratioP2;P2;SDS_P1;SDS_P2;PMS_P1;PMS_P2;Temp;Humidity;BMP_temperature;BMP_pressure;BME280_temperature;BME280_humidity;BME280_pressure;Samples;Min_cycle;Max_cycle;Signal;HPM_P1;HPM_P2
2023/03/15 16:35:33;;;;;;;3.88;1.58;;;8.90;72.20;;;;;;5088362;28;20350;-62
2023/03/15 16:38:00;;;;;;;6.43;1.55;;;8.80;74.40;;;;;;5088439;28;20131;-64
2023/03/15 16:40:29;;;;;;;3.45;1.48;;;8.80;76.90;;;;;;5089254;28;20062;-64
2023/03/15 16:42:55;;;;;;;3.45;1.50;;;8.80;78.90;;;;;;5088906;28;20107;-62
2023/03/15 16:45:22;;;;;;;3.70;1.63;;;8.80;78.10;;;;;;5089449;28;20047;-61
2023/03/15 16:47:48;;;;;;;2.80;1.23;;;8.70;78.50;;;;;;5071339;28;20115;-62
2023/03/15 16:50:14;;;;;;;3.65;1.65;;;8.70;78.90;;;;;;5085968;28;20107;-62
2023/03/15 16:52:41;;;;;;;3.67;1.98;;;8.60;78.60;;;;;;5089218;28;20043;-65
2023/03/15 16:55:21;;;;;;;7.07;2.47;;;8.60;78.40;;;;;;5084889;28;20085;-63
2023/03/15 16:57:46;;;;;;;5.20;2.20;;;8.50;78.30;;;;;;5064439;28;20036;-63
2023/03/15 17:00:15;;;;;;;4.82;2.10;;;8.40;79.00;;;;;;5063899;28;20401;-61
2023/03/15 17:02:44;;;;;;;4.75;1.80;;;8.40;79.40;;;;;;5069071;28;20327;-61
2023/03/15 17:05:09;;;;;;;4.57;1.65;;;8.30;78.80;;;;;;5068138;28;20031;-61
2023/03/15 17:07:38;;;;;;;6.75;1.83;;;8.20;79.00;;;;;;5069216;28;20119;-62
2023/03/15 17:10:20;;;;;;;3.35;2.17;;;8.10;78.80;;;;;;5068412;28;20024;-63
2023/03/15 17:12:46;;;;;;;4.10;1.98;;;8.00;78.10;;;;;;5069776;28;20116;-62
2023/03/15 17:15:12;;;;;;;3.35;2.22;;;7.80;79.10;;;;;;5068721;28;20043;-62
2023/03/15 17:17:37;;;;;;;3.78;1.73;;;7.70;79.70;;;;;;5067646;28;20437;-63
2023/03/15 17:20:11;;;;;;;3.95;1.98;;;7.60;80.20;;;;;;5068779;28;20028;-62
2023/03/15 17:22:36;;;;;;;2.50;1.63;;;7.50;81.20;;;;;;5068518;28;20021;-64
2023/03/15 17:25:02;;;;;;;4.88;2.15;;;7.40;83.10;;;;;;5068395;28;20100;-62
2023/03/15 17:27:35;;;;;;;10.18;1.95;;;7.20;83.50;;;;;;5081985;28;20016;-66
2023/03/15 17:30:01;;;;;;;5.95;2.72;;;7.20;84.10;;;;;;5085731;28;20107;-62
2023/03/15 17:32:27;;;;;;;5.82;2.53;;;7.00;84.20;;;;;;5088044;28;20020;-62
2023/03/15 17:34:57;;;;;;;5.47;2.55;;;6.90;84.70;;;;;;5104614;28;20051;-62
2023/03/15 17:37:24;;;;;;;7.47;3.15;;;6.80;84.90;;;;;;5103102;28;20040;-63
2023/03/15 17:39:49;;;;;;;4.78;2.95;;;6.70;85.80;;;;;;5069970;28;20072;-62
2023/03/15 17:42:16;;;;;;;6.10;2.83;;;6.60;86.30;;;;;;5088735;28;20445;-65
2023/03/15 17:44:42;;;;;;;6.38;3.08;;;6.50;86.80;;;;;;5096746;28;20035;-64
2023/03/15 17:47:11;;;;;;;5.43;3.00;;;6.50;87.10;;;;;;5076304;28;20028;-63
2023/03/15 17:49:37;;;;;;;7.80;3.17;;;6.30;88.60;;;;;;5095098;28;20020;-63
2023/03/15 17:52:03;;;;;;;6.22;2.95;;;6.30;88.80;;;;;;5087375;28;20028;-65
2023/03/15 17:54:29;;;;;;;8.52;3.25;;;6.20;89.00;;;;;;5073914;28;20556;-64
2023/03/15 17:56:58;;;;;;;5.80;3.25;;;6.10;89.40;;;;;;5075157;28;20027;-63
2023/03/15 17:59:23;;;;;;;5.22;2.63;;;6.10;89.90;;;;;;5074012;28;20031;-62
2023/03/15 18:01:50;;;;;;;5.30;2.20;;;6.00;90.10;;;;;;5075475;28;20036;-62
2023/03/15 18:04:18;;;;;;;5.68;2.13;;;6.00;90.30;;;;;;5074953;28;20029;-64
2023/03/15 18:06:44;;;;;;;3.97;1.80;;;5.90;90.60;;;;;;5055821;28;20381;-62
2023/03/15 18:09:14;;;;;;;3.33;1.70;;;5.80;90.90;;;;;;5075054;28;20017;-62
2023/03/15 18:11:41;;;;;;;2.85;1.85;;;5.80;91.00;;;;;;5065137;28;20469;-60
2023/03/15 18:14:17;;;;;;;4.80;1.98;;;5.80;91.60;;;;;;5053507;28;20029;-62
2023/03/15 18:16:44;;;;;;;4.07;2.42;;;5.70;91.50;;;;;;5069728;28;20013;-62
2023/03/15 18:19:10;;;;;;;8.15;4.03;;;5.70;91.60;;;;;;5074591;28;20104;-62
2023/03/15 18:21:35;;;;;;;8.82;4.07;;;5.70;91.90;;;;;;5060255;28;20372;-60
2023/03/15 18:24:01;;;;;;;7.53;4.80;;;5.60;92.00;;;;;;5094492;28;20492;-60
2023/03/15 18:26:27;;;;;;;8.73;4.13;;;5.60;92.20;;;;;;5092786;28;20052;-61
2023/03/15 18:28:52;;;;;;;10.68;4.07;;;5.60;92.40;;;;;;5090166;28;20490;-60
2023/03/15 18:31:24;;;;;;;8.13;4.35;;;5.50;92.70;;;;;;5059024;28;20038;-61
2023/03/15 18:33:50;;;;;;;;;;;5.50;93.00;;;;;;5074316;28;20048;-62
2023/03/15 18:36:15;;;;;;;8.90;4.35;;;5.50;93.20;;;;;;5073553;28;19904;-61
2023/03/15 18:38:41;;;;;;;7.10;4.15;;;5.50;93.20;;;;;;5077783;28;20025;-59
2023/03/15 18:41:22;;;;;;;7.10;3.42;;;5.40;93.40;;;;;;5055991;28;20035;-60
2023/03/15 18:43:49;;;;;;;6.63;3.58;;;5.40;93.70;;;;;;5078913;28;20024;-60
2023/03/15 18:46:19;;;;;;;7.70;3.88;;;5.40;93.90;;;;;;5075701;28;20035;-60
2023/03/15 18:48:45;;;;;;;5.75;3.10;;;5.40;94.00;;;;;;5092432;28;20020;-61
2023/03/15 18:51:13;;;;;;;4.47;2.35;;;5.30;94.20;;;;;;5093411;28;20027;-61
2023/03/15 18:53:40;;;;;;;9.10;3.20;;;5.30;94.40;;;;;;5093509;28;20040;-61
2023/03/15 18:56:06;;;;;;;5.32;2.58;;;5.30;95.00;;;;;;5093075;28;20016;-62
2023/03/15 18:58:32;;;;;;;4.57;2.15;;;5.30;95.30;;;;;;5091884;28;20024;-60
2023/03/15 19:00:57;;;;;;;4.55;3.10;;;5.30;95.40;;;;;;5092277;28;20032;-60
2023/03/15 19:03:23;;;;;;;5.00;2.35;;;5.20;95.60;;;;;;5091187;28;20027;-61
2023/03/15 19:05:49;;;;;;;5.00;2.15;;;5.20;95.80;;;;;;5093818;28;20038;-61
2023/03/15 19:08:15;;;;;;;5.70;2.17;;;5.20;96.00;;;;;;5093777;28;20035;-61
2023/03/15 19:10:41;;;;;;;4.05;2.10;;;5.20;96.20;;;;;;5092773;28;20020;-61
2023/03/15 19:13:07;;;;;;;4.70;2.13;;;5.20;96.50;;;;;;5093339;28;20016;-60
2023/03/15 19:15:32;;;;;;;7.10;3.15;;;5.20;96.50;;;;;;5091273;28;20381;-61
2023/03/15 19:17:58;;;;;;;7.47;3.50;;;5.20;96.70;;;;;;5092768;28;20020;-61
2023/03/15 19:20:25;;;;;;;9.32;4.85;;;5.10;96.90;;;;;;5093148;28;20095;-61
2023/03/15 19:22:51;;;;;;;11.65;5.90;;;5.10;97.10;;;;;;5093212;28;20016;-61
2023/03/15 19:25:19;;;;;;;13.98;6.70;;;5.00;97.30;;;;;;5092866;28;20028;-62
2023/03/15 19:27:44;;;;;;;20.65;8.43;;;5.00;97.60;;;;;;5093381;28;20024;-62
2023/03/15 19:30:15;;;;;;;20.35;9.10;;;4.90;98.10;;;;;;5072940;28;20028;-61
2023/03/15 19:32:42;;;;;;;21.05;10.50;;;4.80;98.10;;;;;;5070634;28;20026;-61
2023/03/15 19:35:08;;;;;;;22.50;9.57;;;4.80;98.40;;;;;;5072810;28;20067;-62
2023/03/15 19:37:34;;;;;;;14.93;7.90;;;4.80;98.70;;;;;;5090598;28;20020;-62
2023/03/15 19:40:00;;;;;;;13.23;6.88;;;4.70;99.00;;;;;;5074227;28;20475;-62
2023/03/15 19:42:26;;;;;;;14.30;5.55;;;4.70;99.40;;;;;;5073459;28;20035;-61
2023/03/15 19:44:51;;;;;;;12.00;5.60;;;4.70;99.60;;;;;;5072023;28;20029;-62
2023/03/15 19:47:17;;;;;;;10.20;5.10;;;4.60;99.90;;;;;;5072505;28;20230;-62
2023/03/15 19:49:43;;;;;;;13.05;5.25;;;4.60;99.90;;;;;;5072631;28;20023;-62
2023/03/15 19:52:09;;;;;;;12.77;5.70;;;4.60;99.90;;;;;;5072003;28;20112;-62
2023/03/15 19:54:35;;;;;;;9.38;4.65;;;4.50;99.90;;;;;;5054782;28;20055;-62
2023/03/15 19:57:01;;;;;;;9.18;4.68;;;4.50;99.90;;;;;;5091794;28;20467;-62
2023/03/15 19:59:26;;;;;;;9.65;5.13;;;4.40;99.90;;;;;;5091710;28;20111;-62
2023/03/15 20:01:52;;;;;;;9.30;4.75;;;4.40;99.90;;;;;;5074521;28;20020;-62
2023/03/15 20:04:18;;;;;;;9.25;4.90;;;4.40;99.90;;;;;;5072379;28;20028;-60
2023/03/15 20:06:43;;;;;;;7.75;5.07;;;4.30;99.90;;;;;;5092337;28;20040;-61
2023/03/15 20:09:10;;;;;;;11.43;5.18;;;4.30;99.90;;;;;;5092627;28;20027;-62
2023/03/15 20:11:36;;;;;;;14.18;6.20;;;4.20;99.90;;;;;;5087461;28;20023;-61
2023/03/15 20:14:03;;;;;;;10.13;6.10;;;4.20;99.90;;;;;;5073480;28;20036;-61
2023/03/15 20:16:28;;;;;;;11.57;6.75;;;4.20;99.90;;;;;;5092476;28;20022;-61
2023/03/15 20:18:54;;;;;;;15.18;7.32;;;4.20;99.90;;;;;;5078689;28;20032;-60
2023/03/15 20:21:21;;;;;;;14.20;6.32;;;4.20;99.90;;;;;;5071314;28;20055;-61
2023/03/15 20:23:47;;;;;;;13.57;7.97;;;4.10;99.90;;;;;;5054154;28;20025;-61
2023/03/15 20:26:16;;;;;;;8.57;5.85;;;4.10;99.90;;;;;;5054099;28;20377;-61
2023/03/15 20:28:43;;;;;;;11.25;5.47;;;4.10;99.90;;;;;;5071489;28;20449;-62
2023/03/15 20:31:11;;;;;;;11.63;5.70;;;4.00;99.90;;;;;;5071936;28;20028;-61
2023/03/15 20:33:36;;;;;;;10.55;5.45;;;4.00;99.90;;;;;;5072466;28;20037;-61
2023/03/15 20:36:03;;;;;;;13.75;5.95;;;4.00;99.90;;;;;;5071180;28;20520;-61
2023/03/15 20:38:29;;;;;;;10.23;5.65;;;3.90;99.90;;;;;;5071836;28;20028;-61
2023/03/15 20:40:55;;;;;;;12.45;5.95;;;4.00;99.90;;;;;;5071564;28;20020;-61
2023/03/15 20:43:22;;;;;;;12.35;6.47;;;3.90;99.90;;;;;;5071209;28;20481;-61
2023/03/15 20:45:48;;;;;;;13.35;6.68;;;3.90;99.90;;;;;;5071729;28;20028;-61
2023/03/15 20:48:14;;;;;;;12.52;6.70;;;3.90;99.90;;;;;;5065658;28;20023;-61
2023/03/15 20:50:40;;;;;;;11.32;6.25;;;3.90;99.90;;;;;;5091944;28;20031;-61
2023/03/15 20:53:06;;;;;;;10.68;5.95;;;4.00;99.90;;;;;;5092036;28;20058;-61
2023/03/15 20:55:32;;;;;;;9.32;5.20;;;4.00;99.90;;;;;;5091029;28;20362;-60
2023/03/15 20:57:57;;;;;;;10.75;5.03;;;4.00;99.90;;;;;;5091586;28;20034;-61
2023/03/15 21:00:24;;;;;;;11.85;5.18;;;4.00;99.90;;;;;;5091906;28;20146;-61
2023/03/15 21:02:51;;;;;;;9.50;5.75;;;4.00;99.90;;;;;;5089353;28;20389;-60
2023/03/15 21:05:18;;;;;;;8.55;5.28;;;4.00;99.90;;;;;;5092368;28;20020;-61
2023/03/15 21:07:45;;;;;;;11.15;6.03;;;4.00;99.90;;;;;;5091728;28;20024;-60
2023/03/15 21:10:14;;;;;;;8.25;3.97;;;4.10;99.90;;;;;;5091271;28;20358;-61
2023/03/15 21:12:40;;;;;;;8.20;3.65;;;4.00;99.90;;;;;;5091405;28;20030;-60
2023/03/15 21:15:06;;;;;;;7.07;4.30;;;4.00;99.90;;;;;;5070737;28;20454;-61
2023/03/15 21:17:32;;;;;;;9.35;4.53;;;4.10;99.90;;;;;;5071249;28;20025;-61
2023/03/15 21:19:58;;;;;;;8.80;4.38;;;4.00;99.90;;;;;;5070186;28;20027;-60
2023/03/15 21:22:23;;;;;;;7.55;4.97;;;4.00;99.90;;;;;;5055512;28;20025;-60
2023/03/15 21:24:49;;;;;;;8.73;4.28;;;4.00;99.90;;;;;;5064826;28;20480;-61
2023/03/15 21:27:15;;;;;;;7.53;3.50;;;4.00;99.90;;;;;;5075392;28;20038;-61
